Terminal Aerodrome Forecast
Issued by NWS Charleston, WV

Current Version | Previous Version | Text Only | Print | Product List | Glossary Off
Versions: 1 2 3 4 5 6 7 8 9 10 11 12 13 14 15 16 17 18 19 20 21 22 23

000
FTUS41 KRLX 100200 AAA
TAFHTS
TAF AMD
KHTS 100222Z 1002/1024 VRB03KT P6SM SCT050
     FM100800 00000KT 2SM BR SCT060
     FM101200 00000KT 4SM BR FEW040
     FM101300 VRB03KT P6SM SCT050
     FM101500 33005KT P6SM SCT050=

USA.gov is the U.S. government's official web portal to all federal, state and local government web resources and services.